createdAt,value
2019-02-17T00:01:39.487Z,0.71
2019-02-17T00:04:10.444Z,0.76
2019-02-17T00:06:41.619Z,0.78
2019-02-17T00:09:13.138Z,0.74
2019-02-17T00:11:44.115Z,0.75
2019-02-17T00:14:15.045Z,0.78
2019-02-17T00:16:46.038Z,0.73
2019-02-17T00:19:17.015Z,0.72
2019-02-17T00:21:48.024Z,0.68
2019-02-17T00:24:18.942Z,0.67
2019-02-17T00:26:50.025Z,0.64
2019-02-17T00:29:21.110Z,0.59
2019-02-17T00:31:52.199Z,0.56
2019-02-17T00:34:23.177Z,0.54
2019-02-17T00:36:54.213Z,0.51
2019-02-17T00:39:25.264Z,0.67
2019-02-17T00:41:56.577Z,0.71
2019-02-17T00:44:27.673Z,0.69
2019-02-17T00:46:58.835Z,0.68
2019-02-17T00:49:29.884Z,0.73
2019-02-17T00:52:00.971Z,0.79
2019-02-17T00:54:31.946Z,0.70
2019-02-17T00:57:02.834Z,0.58
2019-02-17T00:59:34.098Z,0.52
2019-02-17T01:02:05.077Z,0.55
2019-02-17T01:04:36.058Z,0.63
2019-02-17T01:07:07.128Z,0.61
2019-02-17T01:09:38.007Z,0.45
2019-02-17T01:12:09.101Z,0.30
2019-02-17T01:14:40.047Z,0.10
2019-02-17T01:17:11.018Z,-0.03
2019-02-17T01:19:41.918Z,-0.08
2019-02-17T01:22:12.831Z,-0.13
2019-02-17T01:24:44.037Z,-0.14
2019-02-17T01:27:14.956Z,-0.23
2019-02-17T01:29:46.117Z,-0.36
2019-02-17T01:32:17.019Z,-0.41
2019-02-17T01:34:47.898Z,-0.39
2019-02-17T01:37:18.819Z,-0.31
2019-02-17T01:39:51.882Z,-0.28
2019-02-17T01:42:22.859Z,-0.27
2019-02-17T01:44:54.020Z,-0.34
2019-02-17T01:47:24.929Z,-0.47
2019-02-17T01:49:55.875Z,-0.60
2019-02-17T01:52:26.985Z,-0.64
2019-02-17T01:54:57.951Z,-0.67
2019-02-17T01:57:29.013Z,-0.67
2019-02-17T02:00:00.241Z,-0.63
2019-02-17T02:02:31.537Z,-0.69
2019-02-17T02:05:02.438Z,-0.65
2019-02-17T02:07:33.442Z,-0.47
2019-02-17T02:10:06.706Z,-0.53
2019-02-17T02:12:37.618Z,-0.33
2019-02-17T02:15:10.819Z,-0.30
2019-02-17T02:17:41.802Z,-0.32
2019-02-17T02:20:13.719Z,-0.32
2019-02-17T02:22:44.637Z,-0.34
2019-02-17T02:25:15.545Z,-0.37
2019-02-17T02:27:46.503Z,-0.45
2019-02-17T02:30:17.557Z,-0.54
2019-02-17T02:32:48.595Z,-0.59
2019-02-17T02:35:19.535Z,-0.61
2019-02-17T02:37:50.510Z,-0.62
2019-02-17T02:40:21.454Z,-0.62
2019-02-17T02:42:52.424Z,-0.60
2019-02-17T02:45:23.369Z,-0.70
2019-02-17T02:47:54.343Z,-0.76
2019-02-17T02:50:25.609Z,-0.84
2019-02-17T02:52:56.578Z,-0.91
2019-02-17T02:55:30.951Z,-0.93
2019-02-17T02:58:01.816Z,-0.89
2019-02-17T03:00:32.888Z,-0.91
2019-02-17T03:03:03.909Z,-0.98
2019-02-17T03:05:36.546Z,-1.05
2019-02-17T03:08:07.610Z,-0.89
2019-02-17T03:10:38.623Z,-0.72
2019-02-17T03:13:09.729Z,-0.61
2019-02-17T03:15:40.807Z,-0.65
2019-02-17T03:18:11.780Z,-0.67
2019-02-17T03:20:42.773Z,-0.67
2019-02-17T03:23:13.673Z,-0.71
2019-02-17T03:25:45.478Z,-0.75
2019-02-17T03:28:16.635Z,-0.79
2019-02-17T03:30:47.704Z,-0.91
2019-02-17T03:33:18.669Z,-1.03
2019-02-17T03:35:49.626Z,-1.09
2019-02-17T03:38:20.632Z,-1.16
2019-02-17T03:40:51.610Z,-1.28
2019-02-17T03:43:22.757Z,-1.37
2019-02-17T03:45:53.946Z,-1.31
2019-02-17T03:48:24.943Z,-1.17
2019-02-17T03:50:56.069Z,-1.16
2019-02-17T03:53:27.032Z,-1.09
2019-02-17T03:55:57.922Z,-1.07
2019-02-17T03:58:28.918Z,-1.08
2019-02-17T04:00:59.884Z,-1.11
2019-02-17T04:03:30.816Z,-1.23
2019-02-17T04:06:01.910Z,-1.33
2019-02-17T04:08:32.809Z,-1.40
2019-02-17T04:11:03.762Z,-1.35
2019-02-17T04:13:34.660Z,-1.31
2019-02-17T04:16:05.658Z,-1.37
2019-02-17T04:18:36.646Z,-1.42
2019-02-17T04:21:07.568Z,-1.52
2019-02-17T04:23:38.647Z,-1.66
2019-02-17T04:26:09.662Z,-1.59
2019-02-17T04:28:40.639Z,-1.59
2019-02-17T04:31:11.850Z,-1.63
2019-02-17T04:33:43.051Z,-1.67
2019-02-17T04:36:14.030Z,-1.69
2019-02-17T04:38:44.936Z,-1.66
2019-02-17T04:41:15.892Z,-1.52
2019-02-17T04:43:46.902Z,-1.60
2019-02-17T04:46:17.854Z,-1.74
2019-02-17T04:48:48.815Z,-1.63
2019-02-17T04:51:19.821Z,-1.54
2019-02-17T04:53:50.830Z,-1.51
2019-02-17T04:56:21.834Z,-1.51
2019-02-17T04:58:52.740Z,-1.56
2019-02-17T05:01:23.699Z,-1.59
2019-02-17T05:03:54.686Z,-1.60
2019-02-17T05:06:25.712Z,-1.59
2019-02-17T05:08:56.972Z,-1.58
2019-02-17T05:11:27.938Z,-1.62
2019-02-17T05:13:59.023Z,-1.61
2019-02-17T05:16:30.061Z,-1.56
2019-02-17T05:19:00.970Z,-1.60
2019-02-17T05:21:31.878Z,-1.65
2019-02-17T05:24:02.797Z,-1.68
2019-02-17T05:26:33.802Z,-1.69
2019-02-17T05:29:04.806Z,-1.73
2019-02-17T05:31:35.666Z,-1.84
2019-02-17T05:34:06.647Z,-1.88
2019-02-17T05:36:37.665Z,-1.71
2019-02-17T05:39:08.693Z,-1.71
2019-02-17T05:41:39.602Z,-1.76
2019-02-17T05:44:10.579Z,-1.77
2019-02-17T05:46:41.792Z,-1.76
2019-02-17T05:49:12.844Z,-1.71
2019-02-17T05:51:43.854Z,-1.61
2019-02-17T05:54:14.784Z,-1.60
2019-02-17T05:56:45.692Z,-1.60
2019-02-17T05:59:16.656Z,-1.61
2019-02-17T06:01:47.692Z,-1.65
2019-02-17T06:04:18.729Z,-1.69
2019-02-17T06:06:49.718Z,-1.68
2019-02-17T06:09:20.640Z,-1.66
2019-02-17T06:11:51.717Z,-1.64
2019-02-17T06:14:22.677Z,-1.62
2019-02-17T06:16:53.675Z,-1.57
2019-02-17T06:19:24.682Z,-1.51
2019-02-17T06:21:55.905Z,-1.50
2019-02-17T06:24:26.992Z,-1.54
2019-02-17T06:26:58.216Z,-1.49
2019-02-17T06:29:29.233Z,-1.48
2019-02-17T06:32:00.142Z,-1.46
2019-02-17T06:34:31.130Z,-1.45
2019-02-17T06:37:02.147Z,-1.41
2019-02-17T06:39:33.204Z,-1.35
2019-02-17T06:42:04.372Z,-1.21
2019-02-17T06:44:35.321Z,-1.12
2019-02-17T06:47:07.993Z,-1.08
2019-02-17T06:49:39.032Z,-1.01
2019-02-17T06:52:10.140Z,-0.95
2019-02-17T06:54:45.476Z,-0.83
2019-02-17T06:57:18.138Z,-0.70
2019-02-17T06:59:49.054Z,-0.56
2019-02-17T07:02:20.028Z,-0.40
2019-02-17T07:05:08.797Z,-0.16
2019-02-17T07:07:39.931Z,0.04
2019-02-17T07:10:10.955Z,0.26
2019-02-17T07:12:42.689Z,0.52
2019-02-17T07:15:13.828Z,0.87
2019-02-17T07:17:44.913Z,1.22
2019-02-17T07:20:16.088Z,1.47
2019-02-17T07:22:47.397Z,1.63
2019-02-17T07:25:30.074Z,1.77
2019-02-17T07:27:57.270Z,1.91
2019-02-17T07:30:28.193Z,2.15
2019-02-17T07:32:59.093Z,2.04
2019-02-17T07:35:30.090Z,1.90
2019-02-17T07:38:01.014Z,1.97
2019-02-17T07:40:31.984Z,1.98
2019-02-17T07:43:03.052Z,2.13
2019-02-17T07:45:34.049Z,2.50
2019-02-17T07:48:05.054Z,2.54
2019-02-17T07:50:36.031Z,2.76
2019-02-17T07:53:07.095Z,2.89
2019-02-17T07:55:38.059Z,3.14
2019-02-17T07:58:08.971Z,3.40
2019-02-17T08:00:40.198Z,3.67
2019-02-17T08:03:11.155Z,3.97
2019-02-17T08:05:42.059Z,4.22
2019-02-17T08:08:13.160Z,4.24
2019-02-17T08:10:44.024Z,4.24
2019-02-17T08:13:14.934Z,4.36
2019-02-17T08:15:46.046Z,4.64
2019-02-17T08:18:17.070Z,5.22
2019-02-17T08:20:48.163Z,6.07
2019-02-17T08:23:19.045Z,6.71
2019-02-17T08:25:49.982Z,6.89
2019-02-17T08:28:20.940Z,7.14
2019-02-17T08:30:51.933Z,7.05
2019-02-17T08:33:23.194Z,6.64
2019-02-17T08:35:54.063Z,6.99
2019-02-17T08:38:25.042Z,7.83
2019-02-17T08:40:56.063Z,8.33
2019-02-17T08:43:27.095Z,8.47
2019-02-17T08:45:58.452Z,9.14
2019-02-17T08:48:29.432Z,9.73
2019-02-17T08:51:00.522Z,9.96
2019-02-17T08:53:31.584Z,10.52
2019-02-17T08:56:02.567Z,10.64
2019-02-17T08:58:33.625Z,10.50
2019-02-17T09:01:04.711Z,10.93
2019-02-17T09:03:35.918Z,11.34
2019-02-17T09:06:07.015Z,11.69
2019-02-17T09:08:37.884Z,12.29
2019-02-17T09:11:08.831Z,13.08
2019-02-17T09:13:39.770Z,13.32
2019-02-17T09:16:10.696Z,13.45
2019-02-17T09:18:41.798Z,13.82
2019-02-17T09:21:12.778Z,13.93
2019-02-17T09:23:44.032Z,14.16
2019-02-17T09:26:15.182Z,14.17
2019-02-17T09:28:46.226Z,13.78
2019-02-17T09:31:17.456Z,13.77
2019-02-17T09:33:48.352Z,13.86
2019-02-17T09:36:19.422Z,13.46
2019-02-17T09:38:50.460Z,13.19
2019-02-17T09:41:21.442Z,12.91
2019-02-17T09:43:52.707Z,12.74
2019-02-17T09:46:23.737Z,12.84
2019-02-17T09:48:55.803Z,13.09
2019-02-17T09:51:27.143Z,13.24
2019-02-17T09:53:58.117Z,13.68
2019-02-17T09:56:29.079Z,14.09
2019-02-17T09:59:00.127Z,14.19
2019-02-17T10:01:31.347Z,14.42
2019-02-17T10:04:02.409Z,13.96
2019-02-17T10:06:33.358Z,14.17
2019-02-17T10:09:05.749Z,14.23
2019-02-17T10:11:36.719Z,14.50
2019-02-17T10:14:07.842Z,14.32
2019-02-17T10:16:39.809Z,14.64
2019-02-17T10:19:10.852Z,15.00
2019-02-17T10:21:41.859Z,15.77
2019-02-17T10:24:13.002Z,15.79
2019-02-17T10:26:44.038Z,15.92
2019-02-17T10:29:15.005Z,15.83
2019-02-17T10:31:46.069Z,16.16
2019-02-17T10:34:17.013Z,15.11
2019-02-17T10:36:53.773Z,14.60
2019-02-17T10:39:24.969Z,14.47
2019-02-17T10:41:55.945Z,14.87
2019-02-17T10:44:27.006Z,15.39
2019-02-17T10:46:57.944Z,15.02
2019-02-17T10:49:28.870Z,16.18
2019-02-17T10:51:59.852Z,16.97
2019-02-17T10:54:30.838Z,16.92
2019-02-17T10:57:01.891Z,17.36
2019-02-17T10:59:32.767Z,17.76
2019-02-17T11:02:03.843Z,17.55
2019-02-17T11:04:34.815Z,17.78
2019-02-17T11:07:05.953Z,18.58
2019-02-17T11:09:36.995Z,18.24
2019-02-17T11:12:08.088Z,17.78
2019-02-17T11:14:39.107Z,17.45
2019-02-17T11:17:13.140Z,17.55
2019-02-17T11:19:44.119Z,18.14
2019-02-17T11:22:22.921Z,18.02
2019-02-17T11:24:48.024Z,17.74
2019-02-17T11:27:18.913Z,18.53
2019-02-17T11:29:49.848Z,19.63
2019-02-17T11:32:21.306Z,19.16
2019-02-17T11:34:52.461Z,19.23
2019-02-17T11:37:23.852Z,18.19
2019-02-17T11:39:54.811Z,18.31
2019-02-17T11:42:25.847Z,18.40
2019-02-17T11:44:56.903Z,18.01
2019-02-17T11:47:29.556Z,18.01
2019-02-17T11:50:00.641Z,18.82
2019-02-17T11:52:31.658Z,19.63
2019-02-17T11:55:02.786Z,21.31
2019-02-17T11:57:33.826Z,22.32
2019-02-17T12:00:10.798Z,20.65
2019-02-17T12:02:41.869Z,20.65
2019-02-17T12:05:14.830Z,21.05
2019-02-17T12:07:45.880Z,20.84
2019-02-17T12:10:17.013Z,20.55
2019-02-17T12:12:48.038Z,19.79
2019-02-17T12:15:19.366Z,20.23
2019-02-17T12:17:50.369Z,21.35
2019-02-17T12:21:11.765Z,21.60
2019-02-17T12:23:47.236Z,21.46
2019-02-17T12:26:31.933Z,21.69
2019-02-17T12:29:04.520Z,21.26
2019-02-17T12:31:36.440Z,21.43
2019-02-17T12:34:07.464Z,21.06
2019-02-17T12:36:38.412Z,20.83
2019-02-17T12:39:10.059Z,21.24
2019-02-17T12:41:41.118Z,21.50
2019-02-17T12:44:12.070Z,22.35
2019-02-17T12:46:44.156Z,23.28
2019-02-17T12:49:15.202Z,23.26
2019-02-17T12:51:46.466Z,24.93
2019-02-17T12:54:17.669Z,25.64
2019-02-17T12:56:48.736Z,25.00
2019-02-17T12:59:19.808Z,23.87
2019-02-17T13:01:50.812Z,24.21
2019-02-17T13:04:36.736Z,25.21
2019-02-17T13:07:07.706Z,23.50
2019-02-17T13:09:38.767Z,23.79
2019-02-17T13:12:09.918Z,23.52
2019-02-17T13:14:41.072Z,24.70
2019-02-17T13:17:12.160Z,24.76
2019-02-17T13:19:43.232Z,25.51
2019-02-17T13:22:14.348Z,26.90
2019-02-17T13:24:45.630Z,26.73
2019-02-17T13:27:16.760Z,25.88
2019-02-17T13:29:47.910Z,24.91
2019-02-17T13:32:19.161Z,24.86
2019-02-17T13:34:50.452Z,25.07
2019-02-17T13:37:21.525Z,24.97
2019-02-17T13:39:52.657Z,24.97
2019-02-17T13:42:24.017Z,26.47
2019-02-17T13:44:55.270Z,26.18
2019-02-17T13:47:26.484Z,25.63
2019-02-17T13:49:57.640Z,24.93
2019-02-17T13:52:28.708Z,24.93
2019-02-17T13:54:59.829Z,24.26
2019-02-17T13:57:30.943Z,22.45
2019-02-17T14:00:17.923Z,23.04
2019-02-17T14:02:53.685Z,23.01
2019-02-17T14:05:24.656Z,22.43
2019-02-17T14:07:55.632Z,22.38
2019-02-17T14:10:26.686Z,22.92
2019-02-17T14:12:57.605Z,22.55
2019-02-17T14:15:28.823Z,22.20
2019-02-17T14:17:59.855Z,22.92
2019-02-17T14:20:30.986Z,22.46
2019-02-17T14:23:02.022Z,22.79
2019-02-17T14:25:33.011Z,23.55
2019-02-17T14:28:04.224Z,23.46
2019-02-17T14:30:35.129Z,23.14
2019-02-17T14:33:06.505Z,23.44
2019-02-17T14:35:37.435Z,22.96
2019-02-17T14:38:08.576Z,22.93
2019-02-17T14:40:39.753Z,23.13
2019-02-17T14:43:10.981Z,22.38
2019-02-17T14:45:42.010Z,23.25
2019-02-17T14:48:12.943Z,23.39
2019-02-17T14:50:44.065Z,23.61
2019-02-17T14:53:16.167Z,22.76
2019-02-17T14:55:47.259Z,22.20
2019-02-17T14:58:18.436Z,21.59
2019-02-17T15:00:49.384Z,22.13
2019-02-17T15:03:20.375Z,22.70
2019-02-17T15:05:53.617Z,22.63
2019-02-17T15:08:23.943Z,22.07
2019-02-17T15:10:54.956Z,21.89
2019-02-17T15:13:25.812Z,21.98
2019-02-17T15:15:56.799Z,22.01
2019-02-17T15:18:27.815Z,21.81
2019-02-17T15:20:58.803Z,21.82
2019-02-17T15:23:29.739Z,21.86
2019-02-17T15:26:00.949Z,22.12
2019-02-17T15:28:31.902Z,22.32
2019-02-17T15:31:02.959Z,21.67
2019-02-17T15:33:33.815Z,21.37
2019-02-17T15:36:04.853Z,21.03
2019-02-17T15:38:35.813Z,21.68
2019-02-17T15:41:06.860Z,21.60
2019-02-17T15:43:39.096Z,21.12
2019-02-17T15:46:10.047Z,21.37
2019-02-17T15:48:41.112Z,20.89
2019-02-17T15:51:12.116Z,20.63
2019-02-17T15:53:43.288Z,19.92
2019-02-17T15:56:14.351Z,19.40
2019-02-17T15:58:45.423Z,18.97
2019-02-17T16:01:16.679Z,18.77
2019-02-17T16:03:50.562Z,18.54
2019-02-17T16:06:21.607Z,18.31
2019-02-17T16:08:52.536Z,17.91
2019-02-17T16:11:23.427Z,17.50
2019-02-17T16:13:54.468Z,16.75
2019-02-17T16:16:26.911Z,16.17
2019-02-17T16:18:57.976Z,15.53
2019-02-17T16:21:30.339Z,15.06
2019-02-17T16:24:01.211Z,14.70
2019-02-17T16:26:35.263Z,14.36
2019-02-17T16:29:07.726Z,14.00
2019-02-17T16:31:41.123Z,13.70
2019-02-17T16:34:12.189Z,13.42
2019-02-17T16:36:44.706Z,13.18
2019-02-17T16:39:15.834Z,12.94
2019-02-17T16:41:46.836Z,12.66
2019-02-17T16:44:22.508Z,12.42
2019-02-17T16:46:53.488Z,12.19
2019-02-17T16:49:24.446Z,11.98
2019-02-17T16:51:55.371Z,11.75
2019-02-17T16:54:26.235Z,11.55
2019-02-17T16:56:58.606Z,11.40
2019-02-17T16:59:29.583Z,11.22
2019-02-17T17:02:00.683Z,11.09
2019-02-17T17:04:32.407Z,10.90
2019-02-17T17:07:03.694Z,10.59
2019-02-17T17:09:34.607Z,10.33
2019-02-17T17:12:05.994Z,10.17
2019-02-17T17:14:37.034Z,9.96
2019-02-17T17:17:08.168Z,9.76
2019-02-17T17:19:39.134Z,9.61
2019-02-17T17:22:10.144Z,9.51
2019-02-17T17:24:41.277Z,9.35
2019-02-17T17:27:12.338Z,9.27
2019-02-17T17:29:43.305Z,9.22
2019-02-17T17:32:23.237Z,9.09
2019-02-17T17:34:58.974Z,8.92
2019-02-17T17:37:26.932Z,8.84
2019-02-17T17:39:58.025Z,8.67
2019-02-17T17:42:32.062Z,8.50
2019-02-17T17:45:07.055Z,8.26
2019-02-17T17:47:38.039Z,8.05
2019-02-17T17:50:11.558Z,8.15
2019-02-17T17:52:42.827Z,8.14
2019-02-17T17:55:14.560Z,8.04
2019-02-17T17:57:45.607Z,7.98
2019-02-17T18:00:21.920Z,7.93
2019-02-17T18:02:53.556Z,7.59
2019-02-17T18:05:24.711Z,7.33
2019-02-17T18:07:55.879Z,7.13
2019-02-17T18:10:26.890Z,7.02
2019-02-17T18:12:57.927Z,7.04
2019-02-17T18:15:29.002Z,7.04
2019-02-17T18:18:00.042Z,6.98
2019-02-17T18:20:30.941Z,6.90
2019-02-17T18:23:02.058Z,6.74
2019-02-17T18:25:33.067Z,6.98
2019-02-17T18:28:04.074Z,7.17
2019-02-17T18:30:35.116Z,7.22
2019-02-17T18:33:06.065Z,7.16
2019-02-17T18:35:37.091Z,7.09
2019-02-17T18:38:08.087Z,6.93
2019-02-17T18:40:46.079Z,6.63
2019-02-17T18:43:11.687Z,6.48
2019-02-17T18:45:42.769Z,6.28
2019-02-17T18:48:13.831Z,6.18
2019-02-17T18:50:44.832Z,6.15
2019-02-17T18:53:16.070Z,6.05
2019-02-17T18:55:47.236Z,5.98
2019-02-17T18:58:18.390Z,5.91
2019-02-17T19:00:49.461Z,5.87
2019-02-17T19:03:20.537Z,5.82
2019-02-17T19:05:51.570Z,5.78
2019-02-17T19:08:22.683Z,5.72
2019-02-17T19:10:56.520Z,5.65
2019-02-17T19:13:27.519Z,5.63
2019-02-17T19:15:58.860Z,5.68
2019-02-17T19:18:30.069Z,5.63
2019-02-17T19:21:01.145Z,5.46
2019-02-17T19:23:32.103Z,5.43
2019-02-17T19:26:03.235Z,5.36
2019-02-17T19:28:34.291Z,5.32
2019-02-17T19:31:05.307Z,5.27
2019-02-17T19:33:36.286Z,5.23
2019-02-17T19:36:07.204Z,5.14
2019-02-17T19:38:38.237Z,5.09
2019-02-17T19:41:09.494Z,4.97
2019-02-17T19:43:40.526Z,4.84
2019-02-17T19:46:11.621Z,4.87
2019-02-17T19:48:42.765Z,4.82
2019-02-17T19:51:13.799Z,4.80
2019-02-17T19:53:44.816Z,4.77
2019-02-17T19:56:15.854Z,4.75
2019-02-17T19:58:46.719Z,4.67
2019-02-17T20:01:17.741Z,4.78
2019-02-17T20:03:50.503Z,4.70
2019-02-17T20:06:22.529Z,4.70
2019-02-17T20:08:54.018Z,4.75
2019-02-17T20:11:25.769Z,4.68
2019-02-17T20:13:57.015Z,4.57
2019-02-17T20:16:28.022Z,4.44
2019-02-17T20:18:59.149Z,4.34
2019-02-17T20:21:30.136Z,4.25
2019-02-17T20:24:01.067Z,4.13
2019-02-17T20:26:32.331Z,4.08
2019-02-17T20:29:03.415Z,3.94
2019-02-17T20:31:34.369Z,3.88
2019-02-17T20:34:05.473Z,3.90
2019-02-17T20:36:36.535Z,3.94
2019-02-17T20:39:07.678Z,3.90
2019-02-17T20:41:38.779Z,3.92
2019-02-17T20:44:09.744Z,3.92
2019-02-17T20:46:40.642Z,4.01
2019-02-17T20:49:11.715Z,3.98
2019-02-17T20:51:42.698Z,3.99
2019-02-17T20:54:13.696Z,3.98
2019-02-17T20:56:44.713Z,3.87
2019-02-17T20:59:15.666Z,3.87
2019-02-17T21:01:46.646Z,3.77
2019-02-17T21:04:17.911Z,3.74
2019-02-17T21:06:48.944Z,3.65
2019-02-17T21:09:20.024Z,3.59
2019-02-17T21:11:51.050Z,3.68
2019-02-17T21:14:22.074Z,3.66
2019-02-17T21:16:53.090Z,3.53
2019-02-17T21:19:24.094Z,3.48
2019-02-17T21:21:55.250Z,3.50
2019-02-17T21:24:26.328Z,3.58
2019-02-17T21:26:57.479Z,3.60
2019-02-17T21:29:29.418Z,3.58
2019-02-17T21:32:00.552Z,3.52
2019-02-17T21:34:31.423Z,3.39
2019-02-17T21:37:02.440Z,3.28
2019-02-17T21:39:33.402Z,3.21
2019-02-17T21:42:04.608Z,3.02
2019-02-17T21:44:35.788Z,2.86
2019-02-17T21:47:06.742Z,2.72
2019-02-17T21:49:37.751Z,2.79
2019-02-17T21:52:08.785Z,2.98
2019-02-17T21:54:39.757Z,3.11
2019-02-17T21:57:10.902Z,3.21
2019-02-17T21:59:42.333Z,3.26
2019-02-17T22:02:13.269Z,3.26
2019-02-17T22:04:44.197Z,3.21
2019-02-17T22:07:15.226Z,3.11
2019-02-17T22:09:46.120Z,3.06
2019-02-17T22:12:16.968Z,3.00
2019-02-17T22:14:47.956Z,3.00
2019-02-17T22:17:18.983Z,2.98
2019-02-17T22:19:49.962Z,2.85
2019-02-17T22:22:21.002Z,2.73
2019-02-17T22:24:52.121Z,2.60
2019-02-17T22:27:23.087Z,2.45
2019-02-17T22:29:54.055Z,2.38
2019-02-17T22:32:25.156Z,2.31
2019-02-17T22:34:56.108Z,2.26
2019-02-17T22:37:27.126Z,2.11
2019-02-17T22:39:58.069Z,2.05
2019-02-17T22:42:29.151Z,2.02
2019-02-17T22:45:00.104Z,2.00
2019-02-17T22:47:31.151Z,1.93
2019-02-17T22:50:02.046Z,1.72
2019-02-17T22:52:33.213Z,1.55
2019-02-17T22:55:06.135Z,1.43
2019-02-17T22:57:37.143Z,1.33
2019-02-17T23:00:26.358Z,1.29
2019-02-17T23:02:57.385Z,1.23
2019-02-17T23:05:28.460Z,1.10
2019-02-17T23:07:59.461Z,1.01
2019-02-17T23:10:30.410Z,0.92
2019-02-17T23:13:02.188Z,0.87
2019-02-17T23:15:33.169Z,0.79
2019-02-17T23:18:04.393Z,0.69
2019-02-17T23:20:35.351Z,0.59
2019-02-17T23:23:06.412Z,0.48
2019-02-17T23:25:37.455Z,0.43
2019-02-17T23:28:08.489Z,0.33
2019-02-17T23:30:39.442Z,0.28
2019-02-17T23:33:10.368Z,0.30
2019-02-17T23:35:41.313Z,0.35
2019-02-17T23:38:12.188Z,0.24
2019-02-17T23:40:43.178Z,0.16
2019-02-17T23:43:14.236Z,0.08
2019-02-17T23:45:45.270Z,0.02
2019-02-17T23:48:16.730Z,-0.06
2019-02-17T23:50:47.695Z,-0.13
2019-02-17T23:53:18.745Z,-0.12
2019-02-17T23:55:49.719Z,-0.08
2019-02-17T23:58:22.388Z,-0.03
